sensor_id;sensor_type;location;lat;lon;timestamp;P1;durP1;ratioP1;P2;durP2;ratioP2
61188;SDS011;47054;39.716;2.904;2022-08-19T00:01:11;6.15;;;1.60;;
61188;SDS011;47054;39.716;2.904;2022-08-19T00:03:57;3.95;;;1.58;;
61188;SDS011;47054;39.716;2.904;2022-08-19T00:06:43;3.42;;;1.38;;
61188;SDS011;47054;39.716;2.904;2022-08-19T00:09:29;6.65;;;1.48;;
61188;SDS011;47054;39.716;2.904;2022-08-19T00:12:14;11.32;;;1.70;;
61188;SDS011;47054;39.716;2.904;2022-08-19T00:14:59;7.38;;;1.85;;
61188;SDS011;47054;39.716;2.904;2022-08-19T00:17:44;4.20;;;1.50;;
61188;SDS011;47054;39.716;2.904;2022-08-19T00:20:29;4.53;;;1.40;;
61188;SDS011;47054;39.716;2.904;2022-08-19T00:23:13;5.25;;;1.45;;
61188;SDS011;47054;39.716;2.904;2022-08-19T00:25:59;5.38;;;1.80;;
61188;SDS011;47054;39.716;2.904;2022-08-19T00:28:43;5.07;;;1.48;;
61188;SDS011;47054;39.716;2.904;2022-08-19T00:31:27;7.63;;;1.70;;
61188;SDS011;47054;39.716;2.904;2022-08-19T00:34:13;6.88;;;1.55;;
61188;SDS011;47054;39.716;2.904;2022-08-19T00:36:58;4.72;;;1.73;;
61188;SDS011;47054;39.716;2.904;2022-08-19T00:39:43;4.63;;;1.42;;
61188;SDS011;47054;39.716;2.904;2022-08-19T00:42:28;7.40;;;1.70;;
61188;SDS011;47054;39.716;2.904;2022-08-19T00:45:14;5.80;;;1.60;;
61188;SDS011;47054;39.716;2.904;2022-08-19T00:48:01;6.22;;;1.30;;
61188;SDS011;47054;39.716;2.904;2022-08-19T00:50:49;7.53;;;1.30;;
61188;SDS011;47054;39.716;2.904;2022-08-19T00:53:36;6.90;;;1.50;;
61188;SDS011;47054;39.716;2.904;2022-08-19T00:56:21;6.10;;;1.38;;
61188;SDS011;47054;39.716;2.904;2022-08-19T00:59:06;15.15;;;1.67;;
61188;SDS011;47054;39.716;2.904;2022-08-19T01:01:54;7.22;;;1.38;;
61188;SDS011;47054;39.716;2.904;2022-08-19T01:04:38;7.90;;;1.30;;
61188;SDS011;47054;39.716;2.904;2022-08-19T01:07:22;4.68;;;1.17;;
61188;SDS011;47054;39.716;2.904;2022-08-19T01:10:09;8.98;;;1.25;;
61188;SDS011;47054;39.716;2.904;2022-08-19T01:12:57;6.20;;;1.27;;
61188;SDS011;47054;39.716;2.904;2022-08-19T01:15:45;5.38;;;1.48;;
61188;SDS011;47054;39.716;2.904;2022-08-19T01:18:35;4.88;;;1.10;;
61188;SDS011;47054;39.716;2.904;2022-08-19T01:21:33;6.38;;;1.20;;
61188;SDS011;47054;39.716;2.904;2022-08-19T01:24:21;3.28;;;0.98;;
61188;SDS011;47054;39.716;2.904;2022-08-19T01:27:06;2.28;;;0.90;;
61188;SDS011;47054;39.716;2.904;2022-08-19T01:29:51;3.40;;;1.02;;
61188;SDS011;47054;39.716;2.904;2022-08-19T01:32:36;5.53;;;0.98;;
61188;SDS011;47054;39.716;2.904;2022-08-19T01:35:21;2.45;;;0.60;;
61188;SDS011;47054;39.716;2.904;2022-08-19T01:38:09;2.20;;;0.80;;
61188;SDS011;47054;39.716;2.904;2022-08-19T01:41:02;3.92;;;1.00;;
61188;SDS011;47054;39.716;2.904;2022-08-19T01:43:47;3.00;;;0.80;;
61188;SDS011;47054;39.716;2.904;2022-08-19T01:46:32;5.00;;;1.00;;
61188;SDS011;47054;39.716;2.904;2022-08-19T01:49:19;3.28;;;0.90;;
61188;SDS011;47054;39.716;2.904;2022-08-19T01:52:05;6.97;;;1.08;;
61188;SDS011;47054;39.716;2.904;2022-08-19T01:54:50;4.88;;;1.20;;
61188;SDS011;47054;39.716;2.904;2022-08-19T01:57:34;3.28;;;0.90;;
61188;SDS011;47054;39.716;2.904;2022-08-19T02:03:30;4.43;;;0.95;;
61188;SDS011;47054;39.716;2.904;2022-08-19T02:06:15;1.52;;;0.70;;
61188;SDS011;47054;39.716;2.904;2022-08-19T02:09:00;4.28;;;1.00;;
61188;SDS011;47054;39.716;2.904;2022-08-19T02:11:46;2.92;;;0.90;;
61188;SDS011;47054;39.716;2.904;2022-08-19T02:14:30;3.40;;;1.00;;
61188;SDS011;47054;39.716;2.904;2022-08-19T02:17:17;2.45;;;0.75;;
61188;SDS011;47054;39.716;2.904;2022-08-19T02:20:02;2.05;;;1.00;;
61188;SDS011;47054;39.716;2.904;2022-08-19T02:22:49;5.22;;;1.10;;
61188;SDS011;47054;39.716;2.904;2022-08-19T02:25:34;1.77;;;0.90;;
61188;SDS011;47054;39.716;2.904;2022-08-19T02:28:19;6.70;;;1.48;;
61188;SDS011;47054;39.716;2.904;2022-08-19T02:31:08;2.92;;;1.00;;
61188;SDS011;47054;39.716;2.904;2022-08-19T02:33:55;3.28;;;1.38;;
61188;SDS011;47054;39.716;2.904;2022-08-19T02:36:40;2.90;;;1.10;;
61188;SDS011;47054;39.716;2.904;2022-08-19T02:39:24;3.75;;;0.85;;
61188;SDS011;47054;39.716;2.904;2022-08-19T02:42:10;3.80;;;0.93;;
61188;SDS011;47054;39.716;2.904;2022-08-19T02:44:55;4.72;;;1.00;;
61188;SDS011;47054;39.716;2.904;2022-08-19T02:47:39;2.78;;;1.02;;
61188;SDS011;47054;39.716;2.904;2022-08-19T02:50:24;8.18;;;1.23;;
61188;SDS011;47054;39.716;2.904;2022-08-19T02:53:08;2.58;;;1.10;;
61188;SDS011;47054;39.716;2.904;2022-08-19T02:55:53;2.22;;;0.90;;
61188;SDS011;47054;39.716;2.904;2022-08-19T02:58:38;4.78;;;1.13;;
61188;SDS011;47054;39.716;2.904;2022-08-19T03:04:14;3.67;;;1.20;;
61188;SDS011;47054;39.716;2.904;2022-08-19T03:07:00;2.97;;;1.27;;
61188;SDS011;47054;39.716;2.904;2022-08-19T03:09:44;3.05;;;1.10;;
61188;SDS011;47054;39.716;2.904;2022-08-19T03:12:29;4.55;;;1.20;;
61188;SDS011;47054;39.716;2.904;2022-08-19T03:15:14;3.38;;;1.10;;
61188;SDS011;47054;39.716;2.904;2022-08-19T03:17:59;1.88;;;1.00;;
61188;SDS011;47054;39.716;2.904;2022-08-19T03:20:44;7.47;;;1.30;;
61188;SDS011;47054;39.716;2.904;2022-08-19T03:23:31;2.13;;;1.10;;
61188;SDS011;47054;39.716;2.904;2022-08-19T03:26:17;4.63;;;1.10;;
61188;SDS011;47054;39.716;2.904;2022-08-19T03:29:02;7.53;;;1.60;;
61188;SDS011;47054;39.716;2.904;2022-08-19T03:31:48;2.67;;;1.02;;
61188;SDS011;47054;39.716;2.904;2022-08-19T03:34:34;4.05;;;1.20;;
61188;SDS011;47054;39.716;2.904;2022-08-19T03:37:20;3.95;;;1.20;;
61188;SDS011;47054;39.716;2.904;2022-08-19T03:40:06;1.77;;;1.02;;
61188;SDS011;47054;39.716;2.904;2022-08-19T03:42:51;12.27;;;1.40;;
61188;SDS011;47054;39.716;2.904;2022-08-19T03:45:36;9.20;;;1.65;;
61188;SDS011;47054;39.716;2.904;2022-08-19T03:48:20;4.20;;;1.20;;
61188;SDS011;47054;39.716;2.904;2022-08-19T03:51:06;6.95;;;1.42;;
61188;SDS011;47054;39.716;2.904;2022-08-19T03:53:52;8.02;;;1.55;;
61188;SDS011;47054;39.716;2.904;2022-08-19T03:56:38;4.28;;;1.30;;
61188;SDS011;47054;39.716;2.904;2022-08-19T03:59:29;3.47;;;1.40;;
61188;SDS011;47054;39.716;2.904;2022-08-19T04:02:16;4.85;;;1.42;;
61188;SDS011;47054;39.716;2.904;2022-08-19T04:05:00;8.13;;;1.30;;
61188;SDS011;47054;39.716;2.904;2022-08-19T04:07:45;3.78;;;1.20;;
61188;SDS011;47054;39.716;2.904;2022-08-19T04:10:29;5.60;;;1.42;;
61188;SDS011;47054;39.716;2.904;2022-08-19T04:13:15;3.45;;;1.20;;
61188;SDS011;47054;39.716;2.904;2022-08-19T04:16:01;3.05;;;1.40;;
61188;SDS011;47054;39.716;2.904;2022-08-19T04:18:47;3.30;;;1.25;;
61188;SDS011;47054;39.716;2.904;2022-08-19T04:21:33;4.40;;;1.40;;
61188;SDS011;47054;39.716;2.904;2022-08-19T04:24:18;3.65;;;1.13;;
61188;SDS011;47054;39.716;2.904;2022-08-19T04:27:03;3.35;;;1.40;;
61188;SDS011;47054;39.716;2.904;2022-08-19T04:29:50;3.08;;;1.13;;
61188;SDS011;47054;39.716;2.904;2022-08-19T04:32:34;4.75;;;1.45;;
61188;SDS011;47054;39.716;2.904;2022-08-19T04:35:19;5.93;;;1.48;;
61188;SDS011;47054;39.716;2.904;2022-08-19T04:38:04;4.68;;;1.85;;
61188;SDS011;47054;39.716;2.904;2022-08-19T04:40:50;6.80;;;1.60;;
61188;SDS011;47054;39.716;2.904;2022-08-19T04:43:53;4.88;;;1.30;;
61188;SDS011;47054;39.716;2.904;2022-08-19T04:46:38;4.15;;;1.60;;
61188;SDS011;47054;39.716;2.904;2022-08-19T04:49:24;4.75;;;1.40;;
61188;SDS011;47054;39.716;2.904;2022-08-19T04:52:09;3.42;;;1.40;;
61188;SDS011;47054;39.716;2.904;2022-08-19T04:54:53;4.28;;;1.50;;
61188;SDS011;47054;39.716;2.904;2022-08-19T04:57:39;4.15;;;1.33;;
61188;SDS011;47054;39.716;2.904;2022-08-19T05:00:24;5.20;;;1.67;;
61188;SDS011;47054;39.716;2.904;2022-08-19T05:03:08;8.07;;;2.30;;
61188;SDS011;47054;39.716;2.904;2022-08-19T05:05:54;6.57;;;2.75;;
61188;SDS011;47054;39.716;2.904;2022-08-19T05:08:39;5.82;;;2.60;;
61188;SDS011;47054;39.716;2.904;2022-08-19T05:11:31;6.88;;;3.33;;
61188;SDS011;47054;39.716;2.904;2022-08-19T05:14:18;5.53;;;2.60;;
61188;SDS011;47054;39.716;2.904;2022-08-19T05:17:05;8.80;;;2.70;;
61188;SDS011;47054;39.716;2.904;2022-08-19T05:19:49;5.45;;;2.40;;
61188;SDS011;47054;39.716;2.904;2022-08-19T05:22:52;8.68;;;2.22;;
61188;SDS011;47054;39.716;2.904;2022-08-19T05:25:38;7.82;;;2.22;;
61188;SDS011;47054;39.716;2.904;2022-08-19T05:28:23;3.97;;;1.92;;
61188;SDS011;47054;39.716;2.904;2022-08-19T05:31:08;7.90;;;2.30;;
61188;SDS011;47054;39.716;2.904;2022-08-19T05:33:52;8.27;;;2.30;;
61188;SDS011;47054;39.716;2.904;2022-08-19T05:36:39;8.45;;;2.10;;
61188;SDS011;47054;39.716;2.904;2022-08-19T05:39:26;6.82;;;1.90;;
61188;SDS011;47054;39.716;2.904;2022-08-19T05:42:13;4.68;;;1.88;;
61188;SDS011;47054;39.716;2.904;2022-08-19T05:44:58;4.65;;;1.90;;
61188;SDS011;47054;39.716;2.904;2022-08-19T05:47:43;6.30;;;1.70;;
61188;SDS011;47054;39.716;2.904;2022-08-19T05:50:29;4.18;;;1.70;;
61188;SDS011;47054;39.716;2.904;2022-08-19T05:53:15;4.90;;;1.50;;
61188;SDS011;47054;39.716;2.904;2022-08-19T05:56:06;2.97;;;1.85;;
61188;SDS011;47054;39.716;2.904;2022-08-19T05:58:53;3.97;;;1.50;;
61188;SDS011;47054;39.716;2.904;2022-08-19T06:01:38;4.75;;;1.30;;
61188;SDS011;47054;39.716;2.904;2022-08-19T06:04:24;3.35;;;1.40;;
61188;SDS011;47054;39.716;2.904;2022-08-19T06:07:09;4.68;;;1.40;;
61188;SDS011;47054;39.716;2.904;2022-08-19T06:09:55;5.20;;;1.40;;
61188;SDS011;47054;39.716;2.904;2022-08-19T06:12:40;2.47;;;1.20;;
61188;SDS011;47054;39.716;2.904;2022-08-19T06:15:25;3.53;;;1.40;;
61188;SDS011;47054;39.716;2.904;2022-08-19T06:18:13;3.72;;;1.30;;
61188;SDS011;47054;39.716;2.904;2022-08-19T06:20:58;3.70;;;1.27;;
61188;SDS011;47054;39.716;2.904;2022-08-19T06:23:42;3.58;;;1.23;;
61188;SDS011;47054;39.716;2.904;2022-08-19T06:26:27;2.30;;;1.13;;
61188;SDS011;47054;39.716;2.904;2022-08-19T06:29:12;7.97;;;1.50;;
61188;SDS011;47054;39.716;2.904;2022-08-19T06:32:00;6.97;;;1.70;;
61188;SDS011;47054;39.716;2.904;2022-08-19T06:34:46;5.07;;;1.40;;
61188;SDS011;47054;39.716;2.904;2022-08-19T06:37:30;3.40;;;1.55;;
61188;SDS011;47054;39.716;2.904;2022-08-19T06:40:16;2.90;;;1.40;;
61188;SDS011;47054;39.716;2.904;2022-08-19T06:43:00;4.25;;;1.40;;
61188;SDS011;47054;39.716;2.904;2022-08-19T06:45:46;2.28;;;1.13;;
61188;SDS011;47054;39.716;2.904;2022-08-19T06:48:31;3.72;;;1.42;;
61188;SDS011;47054;39.716;2.904;2022-08-19T06:51:16;4.68;;;1.30;;
61188;SDS011;47054;39.716;2.904;2022-08-19T06:54:05;4.88;;;1.38;;
61188;SDS011;47054;39.716;2.904;2022-08-19T06:56:50;5.63;;;1.30;;
61188;SDS011;47054;39.716;2.904;2022-08-19T06:59:36;6.60;;;1.30;;
61188;SDS011;47054;39.716;2.904;2022-08-19T07:02:20;2.70;;;1.30;;
61188;SDS011;47054;39.716;2.904;2022-08-19T07:05:07;4.45;;;1.40;;
61188;SDS011;47054;39.716;2.904;2022-08-19T07:07:51;2.58;;;1.13;;
61188;SDS011;47054;39.716;2.904;2022-08-19T07:10:36;3.60;;;1.40;;
61188;SDS011;47054;39.716;2.904;2022-08-19T07:13:21;4.13;;;1.55;;
61188;SDS011;47054;39.716;2.904;2022-08-19T07:16:07;2.13;;;1.38;;
61188;SDS011;47054;39.716;2.904;2022-08-19T07:18:52;5.00;;;1.35;;
61188;SDS011;47054;39.716;2.904;2022-08-19T07:21:36;3.67;;;1.70;;
61188;SDS011;47054;39.716;2.904;2022-08-19T07:24:22;6.07;;;1.88;;
61188;SDS011;47054;39.716;2.904;2022-08-19T07:27:09;2.92;;;1.40;;
61188;SDS011;47054;39.716;2.904;2022-08-19T07:29:54;3.90;;;1.58;;
61188;SDS011;47054;39.716;2.904;2022-08-19T07:32:39;5.15;;;1.75;;
61188;SDS011;47054;39.716;2.904;2022-08-19T07:35:24;3.05;;;1.48;;
61188;SDS011;47054;39.716;2.904;2022-08-19T07:38:09;3.72;;;1.40;;
61188;SDS011;47054;39.716;2.904;2022-08-19T07:40:54;7.38;;;1.80;;
61188;SDS011;47054;39.716;2.904;2022-08-19T07:43:39;5.85;;;1.70;;
61188;SDS011;47054;39.716;2.904;2022-08-19T07:46:24;4.30;;;2.00;;
61188;SDS011;47054;39.716;2.904;2022-08-19T07:49:11;11.73;;;1.80;;
61188;SDS011;47054;39.716;2.904;2022-08-19T07:52:04;4.57;;;1.60;;
61188;SDS011;47054;39.716;2.904;2022-08-19T07:54:50;5.93;;;1.55;;
61188;SDS011;47054;39.716;2.904;2022-08-19T07:57:35;5.75;;;1.70;;
61188;SDS011;47054;39.716;2.904;2022-08-19T08:00:20;5.85;;;1.50;;
61188;SDS011;47054;39.716;2.904;2022-08-19T08:03:05;7.68;;;1.77;;
61188;SDS011;47054;39.716;2.904;2022-08-19T08:05:50;7.93;;;1.77;;
61188;SDS011;47054;39.716;2.904;2022-08-19T08:08:53;3.97;;;1.70;;
61188;SDS011;47054;39.716;2.904;2022-08-19T08:11:58;6.20;;;1.73;;
61188;SDS011;47054;39.716;2.904;2022-08-19T08:14:47;5.78;;;1.42;;
61188;SDS011;47054;39.716;2.904;2022-08-19T08:17:34;10.85;;;1.88;;
61188;SDS011;47054;39.716;2.904;2022-08-19T08:20:20;4.32;;;1.58;;
61188;SDS011;47054;39.716;2.904;2022-08-19T08:23:04;2.65;;;1.50;;
61188;SDS011;47054;39.716;2.904;2022-08-19T08:26:09;3.58;;;1.23;;
61188;SDS011;47054;39.716;2.904;2022-08-19T08:28:53;3.65;;;1.75;;
61188;SDS011;47054;39.716;2.904;2022-08-19T08:31:39;3.33;;;1.48;;
61188;SDS011;47054;39.716;2.904;2022-08-19T08:34:25;4.63;;;1.55;;
61188;SDS011;47054;39.716;2.904;2022-08-19T08:37:09;4.85;;;1.40;;
61188;SDS011;47054;39.716;2.904;2022-08-19T08:39:54;7.28;;;1.75;;
61188;SDS011;47054;39.716;2.904;2022-08-19T08:42:40;4.88;;;1.48;;
61188;SDS011;47054;39.716;2.904;2022-08-19T08:45:36;5.97;;;1.45;;
61188;SDS011;47054;39.716;2.904;2022-08-19T08:48:31;5.05;;;1.58;;
61188;SDS011;47054;39.716;2.904;2022-08-19T08:51:32;6.35;;;1.50;;
61188;SDS011;47054;39.716;2.904;2022-08-19T08:54:20;3.25;;;1.40;;
61188;SDS011;47054;39.716;2.904;2022-08-19T08:57:12;2.85;;;1.40;;
61188;SDS011;47054;39.716;2.904;2022-08-19T09:00:00;5.30;;;1.45;;
61188;SDS011;47054;39.716;2.904;2022-08-19T09:02:49;4.53;;;1.15;;
61188;SDS011;47054;39.716;2.904;2022-08-19T09:11:55;3.60;;;1.40;;
61188;SDS011;47054;39.716;2.904;2022-08-19T09:17:36;2.75;;;1.20;;
61188;SDS011;47054;39.716;2.904;2022-08-19T09:20:23;2.08;;;1.20;;
61188;SDS011;47054;39.716;2.904;2022-08-19T09:23:08;2.78;;;1.20;;
61188;SDS011;47054;39.716;2.904;2022-08-19T09:25:54;2.17;;;1.15;;
61188;SDS011;47054;39.716;2.904;2022-08-19T09:28:39;2.58;;;1.17;;
61188;SDS011;47054;39.716;2.904;2022-08-19T09:31:28;3.65;;;1.30;;
61188;SDS011;47054;39.716;2.904;2022-08-19T09:34:14;4.90;;;1.30;;
61188;SDS011;47054;39.716;2.904;2022-08-19T09:36:58;2.17;;;1.10;;
61188;SDS011;47054;39.716;2.904;2022-08-19T09:39:43;4.00;;;1.23;;
61188;SDS011;47054;39.716;2.904;2022-08-19T09:42:28;3.33;;;1.30;;
61188;SDS011;47054;39.716;2.904;2022-08-19T09:45:16;4.05;;;1.27;;
61188;SDS011;47054;39.716;2.904;2022-08-19T09:48:05;3.70;;;1.58;;
61188;SDS011;47054;39.716;2.904;2022-08-19T09:50:50;4.40;;;1.40;;
61188;SDS011;47054;39.716;2.904;2022-08-19T09:53:36;3.13;;;1.10;;
61188;SDS011;47054;39.716;2.904;2022-08-19T09:56:22;2.63;;;1.27;;
61188;SDS011;47054;39.716;2.904;2022-08-19T09:59:07;2.60;;;1.20;;
61188;SDS011;47054;39.716;2.904;2022-08-19T10:01:51;2.72;;;1.10;;
61188;SDS011;47054;39.716;2.904;2022-08-19T10:04:36;5.18;;;1.30;;
61188;SDS011;47054;39.716;2.904;2022-08-19T10:07:40;2.70;;;1.30;;
61188;SDS011;47054;39.716;2.904;2022-08-19T10:10:25;3.47;;;1.02;;
61188;SDS011;47054;39.716;2.904;2022-08-19T10:13:10;3.83;;;1.00;;
61188;SDS011;47054;39.716;2.904;2022-08-19T10:15:56;3.83;;;1.40;;
61188;SDS011;47054;39.716;2.904;2022-08-19T10:18:49;3.08;;;1.20;;
61188;SDS011;47054;39.716;2.904;2022-08-19T10:21:34;4.57;;;1.13;;
61188;SDS011;47054;39.716;2.904;2022-08-19T10:24:19;2.58;;;1.05;;
61188;SDS011;47054;39.716;2.904;2022-08-19T10:27:04;6.60;;;1.20;;
61188;SDS011;47054;39.716;2.904;2022-08-19T10:29:49;2.10;;;1.13;;
61188;SDS011;47054;39.716;2.904;2022-08-19T10:32:34;5.30;;;1.20;;
61188;SDS011;47054;39.716;2.904;2022-08-19T10:35:18;3.17;;;1.23;;
61188;SDS011;47054;39.716;2.904;2022-08-19T10:38:03;2.40;;;1.15;;
61188;SDS011;47054;39.716;2.904;2022-08-19T10:40:47;2.53;;;1.45;;
61188;SDS011;47054;39.716;2.904;2022-08-19T10:43:32;2.72;;;1.20;;
61188;SDS011;47054;39.716;2.904;2022-08-19T10:46:20;2.03;;;1.20;;
61188;SDS011;47054;39.716;2.904;2022-08-19T10:49:07;5.15;;;1.33;;
61188;SDS011;47054;39.716;2.904;2022-08-19T10:51:53;4.25;;;1.33;;
61188;SDS011;47054;39.716;2.904;2022-08-19T10:54:57;5.78;;;1.23;;
61188;SDS011;47054;39.716;2.904;2022-08-19T10:58:00;5.28;;;1.25;;
61188;SDS011;47054;39.716;2.904;2022-08-19T11:00:50;3.40;;;1.20;;
61188;SDS011;47054;39.716;2.904;2022-08-19T11:03:39;3.65;;;1.17;;
61188;SDS011;47054;39.716;2.904;2022-08-19T11:06:36;4.32;;;1.27;;
61188;SDS011;47054;39.716;2.904;2022-08-19T11:09:23;1.98;;;1.30;;
61188;SDS011;47054;39.716;2.904;2022-08-19T11:12:10;6.32;;;1.30;;
61188;SDS011;47054;39.716;2.904;2022-08-19T11:14:56;3.83;;;1.13;;
61188;SDS011;47054;39.716;2.904;2022-08-19T11:17:41;5.80;;;1.30;;
61188;SDS011;47054;39.716;2.904;2022-08-19T11:20:27;4.90;;;1.10;;
61188;SDS011;47054;39.716;2.904;2022-08-19T11:23:14;3.85;;;1.20;;
61188;SDS011;47054;39.716;2.904;2022-08-19T11:25:58;1.90;;;1.20;;
61188;SDS011;47054;39.716;2.904;2022-08-19T11:28:46;2.53;;;1.00;;
61188;SDS011;47054;39.716;2.904;2022-08-19T11:31:32;5.63;;;1.65;;
61188;SDS011;47054;39.716;2.904;2022-08-19T11:34:20;2.72;;;1.00;;
61188;SDS011;47054;39.716;2.904;2022-08-19T11:37:07;1.55;;;1.00;;
61188;SDS011;47054;39.716;2.904;2022-08-19T11:39:52;3.45;;;1.23;;
61188;SDS011;47054;39.716;2.904;2022-08-19T11:42:37;2.95;;;1.45;;
61188;SDS011;47054;39.716;2.904;2022-08-19T11:45:40;3.17;;;1.08;;
61188;SDS011;47054;39.716;2.904;2022-08-19T11:48:25;4.40;;;1.63;;
61188;SDS011;47054;39.716;2.904;2022-08-19T11:51:11;3.35;;;1.10;;
61188;SDS011;47054;39.716;2.904;2022-08-19T11:53:58;4.43;;;1.10;;
61188;SDS011;47054;39.716;2.904;2022-08-19T11:56:44;5.28;;;1.20;;
61188;SDS011;47054;39.716;2.904;2022-08-19T11:59:30;2.97;;;1.10;;
61188;SDS011;47054;39.716;2.904;2022-08-19T12:02:14;3.50;;;1.05;;
61188;SDS011;47054;39.716;2.904;2022-08-19T12:04:59;4.75;;;1.00;;
61188;SDS011;47054;39.716;2.904;2022-08-19T12:07:47;3.47;;;1.13;;
61188;SDS011;47054;39.716;2.904;2022-08-19T12:10:32;4.28;;;1.00;;
61188;SDS011;47054;39.716;2.904;2022-08-19T12:13:18;3.92;;;1.00;;
61188;SDS011;47054;39.716;2.904;2022-08-19T12:16:13;6.03;;;1.15;;
61188;SDS011;47054;39.716;2.904;2022-08-19T12:19:00;8.65;;;1.10;;
61188;SDS011;47054;39.716;2.904;2022-08-19T12:21:48;5.47;;;1.50;;
61188;SDS011;47054;39.716;2.904;2022-08-19T12:24:34;5.85;;;1.10;;
61188;SDS011;47054;39.716;2.904;2022-08-19T12:27:18;3.88;;;1.20;;
61188;SDS011;47054;39.716;2.904;2022-08-19T12:30:03;1.88;;;1.00;;
61188;SDS011;47054;39.716;2.904;2022-08-19T12:32:49;2.22;;;1.05;;
61188;SDS011;47054;39.716;2.904;2022-08-19T12:35:35;3.92;;;1.10;;
61188;SDS011;47054;39.716;2.904;2022-08-19T12:38:20;4.80;;;1.13;;
61188;SDS011;47054;39.716;2.904;2022-08-19T12:41:09;7.88;;;1.20;;
61188;SDS011;47054;39.716;2.904;2022-08-19T12:43:56;2.13;;;1.15;;
61188;SDS011;47054;39.716;2.904;2022-08-19T12:46:42;6.18;;;1.13;;
61188;SDS011;47054;39.716;2.904;2022-08-19T12:49:27;2.95;;;1.30;;
61188;SDS011;47054;39.716;2.904;2022-08-19T12:52:13;2.22;;;1.02;;
61188;SDS011;47054;39.716;2.904;2022-08-19T12:55:00;3.15;;;0.90;;
61188;SDS011;47054;39.716;2.904;2022-08-19T12:57:45;1.58;;;0.70;;
61188;SDS011;47054;39.716;2.904;2022-08-19T13:00:31;5.25;;;1.10;;
61188;SDS011;47054;39.716;2.904;2022-08-19T13:03:16;2.20;;;0.77;;
61188;SDS011;47054;39.716;2.904;2022-08-19T13:06:01;4.40;;;0.80;;
61188;SDS011;47054;39.716;2.904;2022-08-19T13:08:46;1.65;;;0.90;;
61188;SDS011;47054;39.716;2.904;2022-08-19T13:11:31;4.78;;;1.08;;
61188;SDS011;47054;39.716;2.904;2022-08-19T13:14:17;2.83;;;1.00;;
61188;SDS011;47054;39.716;2.904;2022-08-19T13:17:02;2.28;;;0.90;;
61188;SDS011;47054;39.716;2.904;2022-08-19T13:19:47;4.03;;;0.70;;
61188;SDS011;47054;39.716;2.904;2022-08-19T13:22:31;1.85;;;0.80;;
61188;SDS011;47054;39.716;2.904;2022-08-19T13:25:16;4.53;;;1.00;;
61188;SDS011;47054;39.716;2.904;2022-08-19T13:28:03;3.88;;;1.00;;
61188;SDS011;47054;39.716;2.904;2022-08-19T13:30:50;4.88;;;0.90;;
61188;SDS011;47054;39.716;2.904;2022-08-19T13:33:53;1.80;;;0.88;;
61188;SDS011;47054;39.716;2.904;2022-08-19T13:36:38;8.77;;;1.10;;
61188;SDS011;47054;39.716;2.904;2022-08-19T13:39:22;6.47;;;1.00;;
61188;SDS011;47054;39.716;2.904;2022-08-19T13:42:07;3.40;;;1.15;;
61188;SDS011;47054;39.716;2.904;2022-08-19T13:44:53;2.58;;;1.00;;
61188;SDS011;47054;39.716;2.904;2022-08-19T13:47:38;3.45;;;1.10;;
61188;SDS011;47054;39.716;2.904;2022-08-19T13:50:29;2.15;;;0.90;;
61188;SDS011;47054;39.716;2.904;2022-08-19T13:53:17;1.95;;;0.90;;
61188;SDS011;47054;39.716;2.904;2022-08-19T13:56:04;3.70;;;1.25;;
61188;SDS011;47054;39.716;2.904;2022-08-19T13:58:50;2.15;;;0.90;;
61188;SDS011;47054;39.716;2.904;2022-08-19T14:01:35;3.05;;;1.00;;
61188;SDS011;47054;39.716;2.904;2022-08-19T14:04:20;6.03;;;1.10;;
61188;SDS011;47054;39.716;2.904;2022-08-19T14:07:04;1.88;;;0.95;;
61188;SDS011;47054;39.716;2.904;2022-08-19T14:09:50;2.70;;;1.10;;
61188;SDS011;47054;39.716;2.904;2022-08-19T14:12:35;2.72;;;1.23;;
61188;SDS011;47054;39.716;2.904;2022-08-19T14:15:20;2.83;;;1.13;;
61188;SDS011;47054;39.716;2.904;2022-08-19T14:18:07;1.77;;;0.95;;
61188;SDS011;47054;39.716;2.904;2022-08-19T14:20:51;2.10;;;1.00;;
61188;SDS011;47054;39.716;2.904;2022-08-19T14:23:36;1.88;;;0.95;;
61188;SDS011;47054;39.716;2.904;2022-08-19T14:26:21;6.65;;;1.30;;
61188;SDS011;47054;39.716;2.904;2022-08-19T14:29:06;3.60;;;1.10;;
61188;SDS011;47054;39.716;2.904;2022-08-19T14:31:51;2.58;;;1.20;;
61188;SDS011;47054;39.716;2.904;2022-08-19T14:34:35;3.90;;;1.20;;
61188;SDS011;47054;39.716;2.904;2022-08-19T14:37:21;3.00;;;1.08;;
61188;SDS011;47054;39.716;2.904;2022-08-19T14:40:06;5.30;;;1.27;;
61188;SDS011;47054;39.716;2.904;2022-08-19T14:42:52;6.47;;;1.15;;
61188;SDS011;47054;39.716;2.904;2022-08-19T14:45:42;3.60;;;1.20;;
61188;SDS011;47054;39.716;2.904;2022-08-19T14:48:27;2.83;;;1.15;;
61188;SDS011;47054;39.716;2.904;2022-08-19T14:51:12;4.07;;;1.55;;
61188;SDS011;47054;39.716;2.904;2022-08-19T14:53:58;2.85;;;1.10;;
61188;SDS011;47054;39.716;2.904;2022-08-19T14:56:43;1.77;;;0.95;;
61188;SDS011;47054;39.716;2.904;2022-08-19T14:59:28;1.95;;;1.10;;
61188;SDS011;47054;39.716;2.904;2022-08-19T15:02:14;3.47;;;1.40;;
61188;SDS011;47054;39.716;2.904;2022-08-19T15:04:59;7.97;;;2.10;;
61188;SDS011;47054;39.716;2.904;2022-08-19T15:07:44;2.05;;;1.10;;
61188;SDS011;47054;39.716;2.904;2022-08-19T15:10:29;4.93;;;1.48;;
61188;SDS011;47054;39.716;2.904;2022-08-19T15:13:14;5.22;;;1.42;;
61188;SDS011;47054;39.716;2.904;2022-08-19T15:15:59;2.75;;;1.40;;
61188;SDS011;47054;39.716;2.904;2022-08-19T15:18:44;6.20;;;1.40;;
61188;SDS011;47054;39.716;2.904;2022-08-19T15:21:33;3.70;;;1.33;;
61188;SDS011;47054;39.716;2.904;2022-08-19T15:24:17;2.70;;;1.13;;
61188;SDS011;47054;39.716;2.904;2022-08-19T15:27:04;2.85;;;0.90;;
61188;SDS011;47054;39.716;2.904;2022-08-19T15:29:49;1.83;;;1.10;;
61188;SDS011;47054;39.716;2.904;2022-08-19T15:32:33;3.22;;;1.33;;
61188;SDS011;47054;39.716;2.904;2022-08-19T15:35:20;1.80;;;1.20;;
61188;SDS011;47054;39.716;2.904;2022-08-19T15:38:05;5.63;;;1.17;;
61188;SDS011;47054;39.716;2.904;2022-08-19T15:40:51;1.92;;;1.00;;
61188;SDS011;47054;39.716;2.904;2022-08-19T15:43:36;3.95;;;1.30;;
61188;SDS011;47054;39.716;2.904;2022-08-19T15:46:26;4.93;;;1.00;;
61188;SDS011;47054;39.716;2.904;2022-08-19T15:49:12;3.63;;;1.20;;
61188;SDS011;47054;39.716;2.904;2022-08-19T15:51:59;3.13;;;1.45;;
61188;SDS011;47054;39.716;2.904;2022-08-19T15:54:44;4.70;;;1.40;;
61188;SDS011;47054;39.716;2.904;2022-08-19T15:57:29;2.53;;;1.05;;
61188;SDS011;47054;39.716;2.904;2022-08-19T16:00:14;5.32;;;1.40;;
61188;SDS011;47054;39.716;2.904;2022-08-19T16:03:17;4.60;;;1.10;;
61188;SDS011;47054;39.716;2.904;2022-08-19T16:06:20;4.57;;;1.20;;
61188;SDS011;47054;39.716;2.904;2022-08-19T16:09:10;3.05;;;1.20;;
61188;SDS011;47054;39.716;2.904;2022-08-19T16:12:00;4.72;;;1.33;;
61188;SDS011;47054;39.716;2.904;2022-08-19T16:17:32;3.08;;;1.20;;
61188;SDS011;47054;39.716;2.904;2022-08-19T16:20:18;6.55;;;1.27;;
61188;SDS011;47054;39.716;2.904;2022-08-19T16:23:05;4.68;;;1.20;;
61188;SDS011;47054;39.716;2.904;2022-08-19T16:25:50;3.08;;;1.08;;
61188;SDS011;47054;39.716;2.904;2022-08-19T16:28:34;3.45;;;1.20;;
61188;SDS011;47054;39.716;2.904;2022-08-19T16:31:19;3.60;;;1.10;;
61188;SDS011;47054;39.716;2.904;2022-08-19T16:34:04;2.65;;;1.10;;
61188;SDS011;47054;39.716;2.904;2022-08-19T16:36:49;5.32;;;1.38;;
61188;SDS011;47054;39.716;2.904;2022-08-19T16:39:34;3.17;;;1.15;;
61188;SDS011;47054;39.716;2.904;2022-08-19T16:42:19;4.07;;;1.02;;
61188;SDS011;47054;39.716;2.904;2022-08-19T16:45:03;2.88;;;1.10;;
61188;SDS011;47054;39.716;2.904;2022-08-19T16:47:52;1.88;;;1.10;;
61188;SDS011;47054;39.716;2.904;2022-08-19T16:50:36;4.60;;;1.20;;
61188;SDS011;47054;39.716;2.904;2022-08-19T16:53:22;2.55;;;1.23;;
61188;SDS011;47054;39.716;2.904;2022-08-19T16:58:57;3.38;;;1.15;;
61188;SDS011;47054;39.716;2.904;2022-08-19T17:01:42;4.20;;;1.00;;
61188;SDS011;47054;39.716;2.904;2022-08-19T17:04:27;4.00;;;1.20;;